sensor_id;sensor_type;location;lat;lon;timestamp;P1;durP1;ratioP1;P2;durP2;ratioP2
27558;SDS011;15002;52.028;5.670;2023-02-15T00:02:16;40.70;;;20.15;;
27558;SDS011;15002;52.028;5.670;2023-02-15T00:04:41;40.17;;;20.00;;
27558;SDS011;15002;52.028;5.670;2023-02-15T00:07:17;39.10;;;19.45;;
27558;SDS011;15002;52.028;5.670;2023-02-15T00:09:44;38.92;;;19.92;;
27558;SDS011;15002;52.028;5.670;2023-02-15T00:12:13;36.85;;;18.92;;
27558;SDS011;15002;52.028;5.670;2023-02-15T00:14:39;34.35;;;18.48;;
27558;SDS011;15002;52.028;5.670;2023-02-15T00:17:05;34.13;;;17.73;;
27558;SDS011;15002;52.028;5.670;2023-02-15T00:19:30;30.98;;;16.42;;
27558;SDS011;15002;52.028;5.670;2023-02-15T00:21:56;30.77;;;16.77;;
27558;SDS011;15002;52.028;5.670;2023-02-15T00:24:22;31.95;;;16.90;;
27558;SDS011;15002;52.028;5.670;2023-02-15T00:26:47;28.75;;;16.80;;
27558;SDS011;15002;52.028;5.670;2023-02-15T00:29:14;30.90;;;16.15;;
27558;SDS011;15002;52.028;5.670;2023-02-15T00:31:42;31.05;;;16.92;;
27558;SDS011;15002;52.028;5.670;2023-02-15T00:34:15;31.42;;;17.25;;
27558;SDS011;15002;52.028;5.670;2023-02-15T00:36:41;35.95;;;16.58;;
27558;SDS011;15002;52.028;5.670;2023-02-15T00:39:07;31.25;;;17.27;;
27558;SDS011;15002;52.028;5.670;2023-02-15T00:41:34;30.55;;;16.08;;
27558;SDS011;15002;52.028;5.670;2023-02-15T00:43:59;32.10;;;17.38;;
27558;SDS011;15002;52.028;5.670;2023-02-15T00:46:25;31.77;;;16.50;;
27558;SDS011;15002;52.028;5.670;2023-02-15T00:48:51;33.03;;;17.63;;
27558;SDS011;15002;52.028;5.670;2023-02-15T00:51:16;34.90;;;18.25;;
27558;SDS011;15002;52.028;5.670;2023-02-15T00:53:42;35.75;;;18.00;;
27558;SDS011;15002;52.028;5.670;2023-02-15T00:56:11;35.33;;;17.80;;
27558;SDS011;15002;52.028;5.670;2023-02-15T00:58:37;33.08;;;17.83;;
27558;SDS011;15002;52.028;5.670;2023-02-15T01:01:07;36.03;;;18.00;;
27558;SDS011;15002;52.028;5.670;2023-02-15T01:03:35;33.15;;;17.80;;
27558;SDS011;15002;52.028;5.670;2023-02-15T01:06:00;37.00;;;18.88;;
27558;SDS011;15002;52.028;5.670;2023-02-15T01:08:27;32.92;;;18.17;;
27558;SDS011;15002;52.028;5.670;2023-02-15T01:10:52;35.75;;;18.95;;
27558;SDS011;15002;52.028;5.670;2023-02-15T01:13:18;40.80;;;20.92;;
27558;SDS011;15002;52.028;5.670;2023-02-15T01:15:44;42.90;;;20.73;;
27558;SDS011;15002;52.028;5.670;2023-02-15T01:18:10;39.13;;;20.95;;
27558;SDS011;15002;52.028;5.670;2023-02-15T01:20:37;44.42;;;21.50;;
27558;SDS011;15002;52.028;5.670;2023-02-15T01:23:06;47.70;;;22.13;;
27558;SDS011;15002;52.028;5.670;2023-02-15T01:25:33;42.13;;;21.00;;
27558;SDS011;15002;52.028;5.670;2023-02-15T01:28:00;48.35;;;21.98;;
27558;SDS011;15002;52.028;5.670;2023-02-15T01:30:26;49.28;;;22.52;;
27558;SDS011;15002;52.028;5.670;2023-02-15T01:32:52;49.30;;;23.20;;
27558;SDS011;15002;52.028;5.670;2023-02-15T01:35:17;46.30;;;21.80;;
27558;SDS011;15002;52.028;5.670;2023-02-15T01:37:43;41.95;;;21.63;;
27558;SDS011;15002;52.028;5.670;2023-02-15T01:40:11;42.15;;;21.73;;
27558;SDS011;15002;52.028;5.670;2023-02-15T01:42:39;41.35;;;20.63;;
27558;SDS011;15002;52.028;5.670;2023-02-15T01:47:41;44.60;;;23.60;;
27558;SDS011;15002;52.028;5.670;2023-02-15T01:52:34;46.22;;;22.05;;
27558;SDS011;15002;52.028;5.670;2023-02-15T01:55:02;39.10;;;21.05;;
27558;SDS011;15002;52.028;5.670;2023-02-15T01:57:29;38.95;;;20.52;;
27558;SDS011;15002;52.028;5.670;2023-02-15T01:59:56;40.13;;;21.00;;
27558;SDS011;15002;52.028;5.670;2023-02-15T02:02:26;36.80;;;20.40;;
27558;SDS011;15002;52.028;5.670;2023-02-15T02:05:02;39.92;;;20.77;;
27558;SDS011;15002;52.028;5.670;2023-02-15T02:07:32;39.08;;;20.58;;
27558;SDS011;15002;52.028;5.670;2023-02-15T02:10:02;40.03;;;19.90;;
27558;SDS011;15002;52.028;5.670;2023-02-15T02:12:31;38.42;;;19.95;;
27558;SDS011;15002;52.028;5.670;2023-02-15T02:14:57;38.83;;;19.38;;
27558;SDS011;15002;52.028;5.670;2023-02-15T02:20:05;45.08;;;20.88;;
27558;SDS011;15002;52.028;5.670;2023-02-15T02:33:56;45.25;;;19.67;;
27558;SDS011;15002;52.028;5.670;2023-02-15T02:36:35;39.83;;;19.95;;
27558;SDS011;15002;52.028;5.670;2023-02-15T02:39:12;36.05;;;19.13;;
27558;SDS011;15002;52.028;5.670;2023-02-15T02:42:09;38.33;;;20.20;;
27558;SDS011;15002;52.028;5.670;2023-02-15T02:44:47;36.83;;;19.55;;
27558;SDS011;15002;52.028;5.670;2023-02-15T02:47:43;38.35;;;20.48;;
27558;SDS011;15002;52.028;5.670;2023-02-15T02:50:22;35.90;;;19.17;;
27558;SDS011;15002;52.028;5.670;2023-02-15T02:52:51;38.15;;;19.70;;
27558;SDS011;15002;52.028;5.670;2023-02-15T02:55:23;42.28;;;20.23;;
27558;SDS011;15002;52.028;5.670;2023-02-15T03:00:38;51.10;;;21.73;;
27558;SDS011;15002;52.028;5.670;2023-02-15T03:03:12;44.42;;;20.88;;
27558;SDS011;15002;52.028;5.670;2023-02-15T03:05:50;42.20;;;22.02;;
27558;SDS011;15002;52.028;5.670;2023-02-15T03:08:19;38.88;;;21.35;;
27558;SDS011;15002;52.028;5.670;2023-02-15T03:10:51;38.40;;;21.42;;
27558;SDS011;15002;52.028;5.670;2023-02-15T03:13:20;42.00;;;20.52;;
27558;SDS011;15002;52.028;5.670;2023-02-15T03:15:47;42.35;;;20.00;;
27558;SDS011;15002;52.028;5.670;2023-02-15T03:18:34;39.75;;;19.77;;
27558;SDS011;15002;52.028;5.670;2023-02-15T03:21:03;43.45;;;22.15;;
27558;SDS011;15002;52.028;5.670;2023-02-15T03:23:30;43.83;;;21.50;;
27558;SDS011;15002;52.028;5.670;2023-02-15T03:25:59;40.83;;;20.20;;
27558;SDS011;15002;52.028;5.670;2023-02-15T03:28:38;40.95;;;21.50;;
27558;SDS011;15002;52.028;5.670;2023-02-15T03:31:08;43.13;;;20.98;;
27558;SDS011;15002;52.028;5.670;2023-02-15T03:33:37;40.33;;;20.58;;
27558;SDS011;15002;52.028;5.670;2023-02-15T03:36:11;42.70;;;21.17;;
27558;SDS011;15002;52.028;5.670;2023-02-15T03:38:50;36.92;;;19.73;;
27558;SDS011;15002;52.028;5.670;2023-02-15T03:41:38;37.28;;;19.13;;
27558;SDS011;15002;52.028;5.670;2023-02-15T03:44:18;38.90;;;20.60;;
27558;SDS011;15002;52.028;5.670;2023-02-15T03:47:17;37.67;;;19.02;;
27558;SDS011;15002;52.028;5.670;2023-02-15T03:52:54;39.65;;;19.88;;
27558;SDS011;15002;52.028;5.670;2023-02-15T03:55:22;38.13;;;19.77;;
27558;SDS011;15002;52.028;5.670;2023-02-15T03:57:48;35.38;;;18.85;;
27558;SDS011;15002;52.028;5.670;2023-02-15T04:00:34;36.03;;;19.58;;
27558;SDS011;15002;52.028;5.670;2023-02-15T04:05:56;34.10;;;17.83;;
27558;SDS011;15002;52.028;5.670;2023-02-15T04:08:22;40.55;;;20.40;;
27558;SDS011;15002;52.028;5.670;2023-02-15T04:11:07;36.95;;;18.48;;
27558;SDS011;15002;52.028;5.670;2023-02-15T04:13:33;34.97;;;18.95;;
27558;SDS011;15002;52.028;5.670;2023-02-15T04:15:59;34.72;;;18.35;;
27558;SDS011;15002;52.028;5.670;2023-02-15T04:21:22;36.00;;;17.83;;
27558;SDS011;15002;52.028;5.670;2023-02-15T04:24:07;39.70;;;19.30;;
27558;SDS011;15002;52.028;5.670;2023-02-15T04:26:52;36.42;;;18.35;;
27558;SDS011;15002;52.028;5.670;2023-02-15T04:29:21;37.13;;;18.45;;
27558;SDS011;15002;52.028;5.670;2023-02-15T04:31:49;38.13;;;18.80;;
27558;SDS011;15002;52.028;5.670;2023-02-15T04:34:15;43.08;;;20.10;;
27558;SDS011;15002;52.028;5.670;2023-02-15T04:36:41;36.53;;;19.33;;
27558;SDS011;15002;52.028;5.670;2023-02-15T04:39:07;34.47;;;18.40;;
27558;SDS011;15002;52.028;5.670;2023-02-15T04:41:33;35.92;;;18.27;;
27558;SDS011;15002;52.028;5.670;2023-02-15T04:43:59;36.30;;;18.75;;
27558;SDS011;15002;52.028;5.670;2023-02-15T04:46:25;35.58;;;19.45;;
27558;SDS011;15002;52.028;5.670;2023-02-15T04:48:52;37.55;;;19.23;;
27558;SDS011;15002;52.028;5.670;2023-02-15T04:51:17;38.33;;;18.98;;
27558;SDS011;15002;52.028;5.670;2023-02-15T04:53:43;37.67;;;18.90;;
27558;SDS011;15002;52.028;5.670;2023-02-15T04:56:09;35.08;;;18.55;;
27558;SDS011;15002;52.028;5.670;2023-02-15T04:58:34;38.33;;;20.25;;
27558;SDS011;15002;52.028;5.670;2023-02-15T05:01:01;40.50;;;19.35;;
27558;SDS011;15002;52.028;5.670;2023-02-15T05:03:27;37.65;;;19.55;;
27558;SDS011;15002;52.028;5.670;2023-02-15T05:05:53;40.00;;;19.98;;
27558;SDS011;15002;52.028;5.670;2023-02-15T05:08:19;36.75;;;20.17;;
27558;SDS011;15002;52.028;5.670;2023-02-15T05:10:47;38.08;;;20.13;;
27558;SDS011;15002;52.028;5.670;2023-02-15T05:13:13;36.22;;;19.65;;
27558;SDS011;15002;52.028;5.670;2023-02-15T05:15:39;41.42;;;20.20;;
27558;SDS011;15002;52.028;5.670;2023-02-15T05:18:04;40.35;;;20.52;;
27558;SDS011;15002;52.028;5.670;2023-02-15T05:20:31;40.00;;;20.23;;
27558;SDS011;15002;52.028;5.670;2023-02-15T05:22:57;41.47;;;21.35;;
27558;SDS011;15002;52.028;5.670;2023-02-15T05:25:22;43.60;;;20.17;;
27558;SDS011;15002;52.028;5.670;2023-02-15T05:28:10;38.58;;;19.92;;
27558;SDS011;15002;52.028;5.670;2023-02-15T05:30:45;45.92;;;19.95;;
27558;SDS011;15002;52.028;5.670;2023-02-15T05:33:12;39.60;;;19.98;;
27558;SDS011;15002;52.028;5.670;2023-02-15T05:35:37;40.35;;;20.30;;
27558;SDS011;15002;52.028;5.670;2023-02-15T05:38:03;44.20;;;21.10;;
27558;SDS011;15002;52.028;5.670;2023-02-15T05:40:29;41.95;;;21.73;;
27558;SDS011;15002;52.028;5.670;2023-02-15T05:42:55;42.55;;;21.05;;
27558;SDS011;15002;52.028;5.670;2023-02-15T05:45:21;41.75;;;21.80;;
27558;SDS011;15002;52.028;5.670;2023-02-15T05:47:47;44.47;;;22.02;;
27558;SDS011;15002;52.028;5.670;2023-02-15T05:50:13;40.33;;;21.40;;
27558;SDS011;15002;52.028;5.670;2023-02-15T05:52:38;42.75;;;21.33;;
27558;SDS011;15002;52.028;5.670;2023-02-15T05:55:04;42.45;;;20.83;;
27558;SDS011;15002;52.028;5.670;2023-02-15T05:57:30;41.85;;;21.42;;
27558;SDS011;15002;52.028;5.670;2023-02-15T05:59:56;39.20;;;20.50;;
27558;SDS011;15002;52.028;5.670;2023-02-15T06:02:22;37.60;;;20.02;;
27558;SDS011;15002;52.028;5.670;2023-02-15T06:04:48;39.97;;;21.40;;
27558;SDS011;15002;52.028;5.670;2023-02-15T06:07:13;46.60;;;22.75;;
27558;SDS011;15002;52.028;5.670;2023-02-15T06:09:39;40.22;;;20.60;;
27558;SDS011;15002;52.028;5.670;2023-02-15T06:12:05;43.53;;;21.85;;
27558;SDS011;15002;52.028;5.670;2023-02-15T06:14:30;43.45;;;20.63;;
27558;SDS011;15002;52.028;5.670;2023-02-15T06:16:56;41.03;;;20.70;;
27558;SDS011;15002;52.028;5.670;2023-02-15T06:19:22;44.35;;;21.30;;
27558;SDS011;15002;52.028;5.670;2023-02-15T06:21:48;45.75;;;22.80;;
27558;SDS011;15002;52.028;5.670;2023-02-15T06:24:15;45.45;;;21.65;;
27558;SDS011;15002;52.028;5.670;2023-02-15T06:26:40;46.10;;;22.38;;
27558;SDS011;15002;52.028;5.670;2023-02-15T06:29:06;43.58;;;22.13;;
27558;SDS011;15002;52.028;5.670;2023-02-15T06:31:32;43.75;;;21.63;;
27558;SDS011;15002;52.028;5.670;2023-02-15T06:33:57;67.13;;;25.48;;
27558;SDS011;15002;52.028;5.670;2023-02-15T06:36:29;61.33;;;24.17;;
27558;SDS011;15002;52.028;5.670;2023-02-15T06:38:56;70.82;;;26.10;;
27558;SDS011;15002;52.028;5.670;2023-02-15T06:41:22;47.42;;;22.05;;
27558;SDS011;15002;52.028;5.670;2023-02-15T06:43:47;47.25;;;23.50;;
27558;SDS011;15002;52.028;5.670;2023-02-15T06:46:14;43.55;;;23.23;;
27558;SDS011;15002;52.028;5.670;2023-02-15T06:48:39;41.13;;;22.63;;
27558;SDS011;15002;52.028;5.670;2023-02-15T06:51:05;47.22;;;22.92;;
27558;SDS011;15002;52.028;5.670;2023-02-15T06:53:31;47.92;;;23.52;;
27558;SDS011;15002;52.028;5.670;2023-02-15T06:56:00;49.40;;;20.95;;
27558;SDS011;15002;52.028;5.670;2023-02-15T07:00:53;41.03;;;20.27;;
27558;SDS011;15002;52.028;5.670;2023-02-15T07:03:19;49.58;;;22.83;;
27558;SDS011;15002;52.028;5.670;2023-02-15T07:05:44;42.28;;;21.83;;
27558;SDS011;15002;52.028;5.670;2023-02-15T07:08:12;50.00;;;23.35;;
27558;SDS011;15002;52.028;5.670;2023-02-15T07:10:38;52.85;;;22.77;;
27558;SDS011;15002;52.028;5.670;2023-02-15T07:13:03;50.30;;;23.50;;
27558;SDS011;15002;52.028;5.670;2023-02-15T07:15:29;43.30;;;22.88;;
27558;SDS011;15002;52.028;5.670;2023-02-15T07:17:56;49.40;;;23.10;;
27558;SDS011;15002;52.028;5.670;2023-02-15T07:20:23;47.95;;;22.73;;
27558;SDS011;15002;52.028;5.670;2023-02-15T07:22:49;48.90;;;22.92;;
27558;SDS011;15002;52.028;5.670;2023-02-15T07:25:15;54.00;;;24.17;;
27558;SDS011;15002;52.028;5.670;2023-02-15T07:27:42;48.83;;;22.40;;
27558;SDS011;15002;52.028;5.670;2023-02-15T07:30:10;45.42;;;22.98;;
27558;SDS011;15002;52.028;5.670;2023-02-15T07:32:37;49.38;;;23.23;;
27558;SDS011;15002;52.028;5.670;2023-02-15T07:35:23;47.97;;;23.17;;
27558;SDS011;15002;52.028;5.670;2023-02-15T07:37:49;43.92;;;22.58;;
27558;SDS011;15002;52.028;5.670;2023-02-15T07:40:15;45.15;;;22.92;;
27558;SDS011;15002;52.028;5.670;2023-02-15T07:42:40;41.78;;;22.85;;
27558;SDS011;15002;52.028;5.670;2023-02-15T07:45:06;48.15;;;23.73;;
27558;SDS011;15002;52.028;5.670;2023-02-15T07:47:32;46.45;;;23.05;;
27558;SDS011;15002;52.028;5.670;2023-02-15T07:49:58;41.08;;;22.58;;
27558;SDS011;15002;52.028;5.670;2023-02-15T07:52:25;42.88;;;22.20;;
27558;SDS011;15002;52.028;5.670;2023-02-15T07:54:50;45.20;;;22.33;;
27558;SDS011;15002;52.028;5.670;2023-02-15T07:57:16;45.42;;;23.63;;
27558;SDS011;15002;52.028;5.670;2023-02-15T07:59:41;47.83;;;23.50;;
27558;SDS011;15002;52.028;5.670;2023-02-15T08:02:10;52.85;;;24.25;;
27558;SDS011;15002;52.028;5.670;2023-02-15T08:04:36;44.47;;;22.88;;
27558;SDS011;15002;52.028;5.670;2023-02-15T08:07:02;46.22;;;24.48;;
27558;SDS011;15002;52.028;5.670;2023-02-15T08:09:27;45.88;;;23.80;;
27558;SDS011;15002;52.028;5.670;2023-02-15T08:11:53;47.13;;;25.35;;
27558;SDS011;15002;52.028;5.670;2023-02-15T08:14:19;49.28;;;23.77;;
27558;SDS011;15002;52.028;5.670;2023-02-15T08:16:50;44.40;;;23.83;;
27558;SDS011;15002;52.028;5.670;2023-02-15T08:21:51;46.40;;;23.83;;
27558;SDS011;15002;52.028;5.670;2023-02-15T08:24:29;43.67;;;24.45;;
27558;SDS011;15002;52.028;5.670;2023-02-15T08:26:56;47.08;;;23.60;;
27558;SDS011;15002;52.028;5.670;2023-02-15T08:29:24;46.58;;;25.23;;
27558;SDS011;15002;52.028;5.670;2023-02-15T08:31:58;44.50;;;23.33;;
27558;SDS011;15002;52.028;5.670;2023-02-15T08:34:29;44.70;;;23.73;;
27558;SDS011;15002;52.028;5.670;2023-02-15T08:36:56;45.08;;;23.05;;
27558;SDS011;15002;52.028;5.670;2023-02-15T08:39:22;47.53;;;24.58;;
27558;SDS011;15002;52.028;5.670;2023-02-15T08:41:48;40.70;;;23.83;;
27558;SDS011;15002;52.028;5.670;2023-02-15T08:44:15;43.50;;;24.23;;
27558;SDS011;15002;52.028;5.670;2023-02-15T08:46:43;46.20;;;24.10;;
27558;SDS011;15002;52.028;5.670;2023-02-15T08:49:11;47.90;;;24.27;;
27558;SDS011;15002;52.028;5.670;2023-02-15T08:51:38;41.72;;;22.38;;
27558;SDS011;15002;52.028;5.670;2023-02-15T08:54:05;45.97;;;23.88;;
27558;SDS011;15002;52.028;5.670;2023-02-15T08:56:34;44.55;;;23.23;;
27558;SDS011;15002;52.028;5.670;2023-02-15T08:59:01;42.13;;;23.23;;
27558;SDS011;15002;52.028;5.670;2023-02-15T09:01:29;43.42;;;22.80;;
27558;SDS011;15002;52.028;5.670;2023-02-15T09:03:57;44.13;;;24.08;;
27558;SDS011;15002;52.028;5.670;2023-02-15T09:06:24;42.45;;;24.00;;
27558;SDS011;15002;52.028;5.670;2023-02-15T09:08:50;40.13;;;22.70;;
27558;SDS011;15002;52.028;5.670;2023-02-15T09:11:17;38.78;;;22.00;;
27558;SDS011;15002;52.028;5.670;2023-02-15T09:13:52;43.67;;;23.55;;
27558;SDS011;15002;52.028;5.670;2023-02-15T09:16:19;44.25;;;24.52;;
27558;SDS011;15002;52.028;5.670;2023-02-15T09:18:46;40.10;;;22.98;;
27558;SDS011;15002;52.028;5.670;2023-02-15T09:21:15;42.90;;;23.58;;
27558;SDS011;15002;52.028;5.670;2023-02-15T09:23:43;37.58;;;21.88;;
27558;SDS011;15002;52.028;5.670;2023-02-15T09:26:12;40.25;;;22.42;;
27558;SDS011;15002;52.028;5.670;2023-02-15T09:28:40;42.28;;;22.65;;
27558;SDS011;15002;52.028;5.670;2023-02-15T09:33:40;40.63;;;22.77;;
27558;SDS011;15002;52.028;5.670;2023-02-15T09:36:17;39.10;;;22.30;;
27558;SDS011;15002;52.028;5.670;2023-02-15T09:38:46;38.50;;;22.10;;
27558;SDS011;15002;52.028;5.670;2023-02-15T09:41:21;40.05;;;21.80;;
27558;SDS011;15002;52.028;5.670;2023-02-15T09:43:52;41.53;;;23.10;;
27558;SDS011;15002;52.028;5.670;2023-02-15T10:00:32;39.47;;;22.00;;
27558;SDS011;15002;52.028;5.670;2023-02-15T10:03:08;42.45;;;21.60;;
27558;SDS011;15002;52.028;5.670;2023-02-15T10:12:11;39.28;;;23.00;;
27558;SDS011;15002;52.028;5.670;2023-02-15T10:20:47;41.65;;;22.00;;
27558;SDS011;15002;52.028;5.670;2023-02-15T10:23:24;36.30;;;20.83;;
27558;SDS011;15002;52.028;5.670;2023-02-15T10:25:53;41.10;;;23.20;;
27558;SDS011;15002;52.028;5.670;2023-02-15T10:28:46;37.63;;;21.95;;
27558;SDS011;15002;52.028;5.670;2023-02-15T10:31:55;41.90;;;23.25;;
27558;SDS011;15002;52.028;5.670;2023-02-15T10:40:01;37.03;;;22.88;;
27558;SDS011;15002;52.028;5.670;2023-02-15T10:50:50;42.67;;;23.25;;
27558;SDS011;15002;52.028;5.670;2023-02-15T10:53:23;45.42;;;23.45;;
27558;SDS011;15002;52.028;5.670;2023-02-15T11:01:30;41.20;;;23.20;;
27558;SDS011;15002;52.028;5.670;2023-02-15T11:06:56;44.70;;;24.67;;
27558;SDS011;15002;52.028;5.670;2023-02-15T11:09:25;41.97;;;25.45;;
27558;SDS011;15002;52.028;5.670;2023-02-15T11:11:57;40.67;;;25.08;;
27558;SDS011;15002;52.028;5.670;2023-02-15T11:14:36;47.03;;;26.73;;
27558;SDS011;15002;52.028;5.670;2023-02-15T11:17:08;45.72;;;25.38;;
27558;SDS011;15002;52.028;5.670;2023-02-15T11:22:26;47.03;;;24.55;;
27558;SDS011;15002;52.028;5.670;2023-02-15T11:24:51;44.30;;;24.83;;
27558;SDS011;15002;52.028;5.670;2023-02-15T11:27:22;52.25;;;25.80;;
27558;SDS011;15002;52.028;5.670;2023-02-15T11:29:53;41.60;;;23.98;;
27558;SDS011;15002;52.028;5.670;2023-02-15T11:32:27;46.72;;;25.60;;
27558;SDS011;15002;52.028;5.670;2023-02-15T11:35:19;46.47;;;25.13;;
27558;SDS011;15002;52.028;5.670;2023-02-15T11:40:59;47.22;;;25.13;;
27558;SDS011;15002;52.028;5.670;2023-02-15T11:43:50;48.92;;;25.83;;
27558;SDS011;15002;52.028;5.670;2023-02-15T11:46:40;42.05;;;24.98;;
27558;SDS011;15002;52.028;5.670;2023-02-15T11:49:23;48.53;;;24.92;;
27558;SDS011;15002;52.028;5.670;2023-02-15T11:51:52;48.58;;;25.27;;
27558;SDS011;15002;52.028;5.670;2023-02-15T11:54:21;47.80;;;27.02;;
27558;SDS011;15002;52.028;5.670;2023-02-15T11:56:51;44.33;;;25.77;;
27558;SDS011;15002;52.028;5.670;2023-02-15T11:59:39;45.67;;;26.05;;
27558;SDS011;15002;52.028;5.670;2023-02-15T12:02:15;47.40;;;25.92;;
27558;SDS011;15002;52.028;5.670;2023-02-15T12:04:46;43.58;;;25.23;;
27558;SDS011;15002;52.028;5.670;2023-02-15T12:10:15;46.35;;;25.73;;
27558;SDS011;15002;52.028;5.670;2023-02-15T12:12:42;47.35;;;26.65;;
27558;SDS011;15002;52.028;5.670;2023-02-15T12:15:09;46.88;;;26.40;;
27558;SDS011;15002;52.028;5.670;2023-02-15T12:17:50;49.15;;;27.30;;
27558;SDS011;15002;52.028;5.670;2023-02-15T12:22:47;50.42;;;26.10;;
27558;SDS011;15002;52.028;5.670;2023-02-15T12:25:23;46.38;;;26.55;;
27558;SDS011;15002;52.028;5.670;2023-02-15T12:27:54;49.03;;;26.75;;
27558;SDS011;15002;52.028;5.670;2023-02-15T12:30:35;51.35;;;27.13;;
27558;SDS011;15002;52.028;5.670;2023-02-15T12:33:07;53.97;;;27.30;;
27558;SDS011;15002;52.028;5.670;2023-02-15T12:36:00;45.38;;;26.48;;
27558;SDS011;15002;52.028;5.670;2023-02-15T12:41:32;44.30;;;26.85;;
27558;SDS011;15002;52.028;5.670;2023-02-15T12:44:06;45.13;;;25.95;;
27558;SDS011;15002;52.028;5.670;2023-02-15T12:46:40;48.05;;;27.05;;
27558;SDS011;15002;52.028;5.670;2023-02-15T12:51:47;47.03;;;26.52;;
27558;SDS011;15002;52.028;5.670;2023-02-15T13:02:29;47.80;;;27.63;;
27558;SDS011;15002;52.028;5.670;2023-02-15T13:05:14;52.30;;;28.35;;
27558;SDS011;15002;52.028;5.670;2023-02-15T13:08:17;46.00;;;25.73;;
27558;SDS011;15002;52.028;5.670;2023-02-15T13:10:59;48.08;;;28.25;;
27558;SDS011;15002;52.028;5.670;2023-02-15T13:13:31;53.85;;;28.05;;
27558;SDS011;15002;52.028;5.670;2023-02-15T13:16:00;49.38;;;26.83;;
27558;SDS011;15002;52.028;5.670;2023-02-15T13:18:39;48.67;;;27.98;;
27558;SDS011;15002;52.028;5.670;2023-02-15T13:21:14;51.10;;;27.25;;
27558;SDS011;15002;52.028;5.670;2023-02-15T13:26:49;49.97;;;27.63;;
27558;SDS011;15002;52.028;5.670;2023-02-15T13:31:50;54.55;;;27.48;;
27558;SDS011;15002;52.028;5.670;2023-02-15T13:42:30;51.00;;;28.58;;
27558;SDS011;15002;52.028;5.670;2023-02-15T14:01:54;58.75;;;28.25;;
27558;SDS011;15002;52.028;5.670;2023-02-15T14:12:23;48.15;;;27.13;;
27558;SDS011;15002;52.028;5.670;2023-02-15T14:25:54;50.03;;;28.52;;
27558;SDS011;15002;52.028;5.670;2023-02-15T14:28:31;53.92;;;29.10;;
27558;SDS011;15002;52.028;5.670;2023-02-15T14:33:38;45.90;;;26.52;;
27558;SDS011;15002;52.028;5.670;2023-02-15T14:36:06;55.55;;;28.17;;
27558;SDS011;15002;52.028;5.670;2023-02-15T14:47:01;55.92;;;28.90;;
27558;SDS011;15002;52.028;5.670;2023-02-15T14:49:35;51.78;;;29.27;;
27558;SDS011;15002;52.028;5.670;2023-02-15T14:52:04;53.42;;;27.95;;
27558;SDS011;15002;52.028;5.670;2023-02-15T14:59:36;53.42;;;28.38;;
27558;SDS011;15002;52.028;5.670;2023-02-15T15:04:36;53.95;;;28.45;;
27558;SDS011;15002;52.028;5.670;2023-02-15T15:09:38;53.67;;;29.40;;
27558;SDS011;15002;52.028;5.670;2023-02-15T15:12:13;49.60;;;28.42;;
27558;SDS011;15002;52.028;5.670;2023-02-15T15:14:45;53.28;;;29.17;;
27558;SDS011;15002;52.028;5.670;2023-02-15T15:19:57;52.78;;;29.25;;
27558;SDS011;15002;52.028;5.670;2023-02-15T15:22:24;51.65;;;28.20;;
27558;SDS011;15002;52.028;5.670;2023-02-15T15:24:55;52.85;;;28.80;;
27558;SDS011;15002;52.028;5.670;2023-02-15T15:32:46;56.70;;;30.13;;
27558;SDS011;15002;52.028;5.670;2023-02-15T15:49:19;57.83;;;30.75;;
27558;SDS011;15002;52.028;5.670;2023-02-15T15:51:46;54.88;;;29.85;;
27558;SDS011;15002;52.028;5.670;2023-02-15T15:54:23;51.35;;;29.00;;
27558;SDS011;15002;52.028;5.670;2023-02-15T15:56:51;53.72;;;28.77;;
27558;SDS011;15002;52.028;5.670;2023-02-15T15:59:24;53.13;;;28.85;;
27558;SDS011;15002;52.028;5.670;2023-02-15T16:01:51;52.38;;;28.75;;
27558;SDS011;15002;52.028;5.670;2023-02-15T16:04:31;61.47;;;31.30;;
27558;SDS011;15002;52.028;5.670;2023-02-15T16:06:58;52.15;;;28.85;;
27558;SDS011;15002;52.028;5.670;2023-02-15T16:12:26;54.58;;;29.15;;
27558;SDS011;15002;52.028;5.670;2023-02-15T16:14:54;60.58;;;29.45;;
27558;SDS011;15002;52.028;5.670;2023-02-15T16:17:24;58.88;;;30.65;;
27558;SDS011;15002;52.028;5.670;2023-02-15T16:19:54;54.00;;;29.23;;
27558;SDS011;15002;52.028;5.670;2023-02-15T16:22:30;52.42;;;30.73;;
27558;SDS011;15002;52.028;5.670;2023-02-15T16:25:31;63.63;;;32.40;;
27558;SDS011;15002;52.028;5.670;2023-02-15T16:27:49;57.67;;;31.60;;
27558;SDS011;15002;52.028;5.670;2023-02-15T16:30:17;66.35;;;32.72;;
27558;SDS011;15002;52.028;5.670;2023-02-15T16:32:52;61.90;;;33.53;;
27558;SDS011;15002;52.028;5.670;2023-02-15T16:35:20;64.73;;;34.40;;
27558;SDS011;15002;52.028;5.670;2023-02-15T16:37:47;62.65;;;35.20;;
27558;SDS011;15002;52.028;5.670;2023-02-15T16:42:56;64.55;;;34.92;;
27558;SDS011;15002;52.028;5.670;2023-02-15T16:45:26;65.32;;;36.60;;
27558;SDS011;15002;52.028;5.670;2023-02-15T16:47:55;66.20;;;36.25;;
27558;SDS011;15002;52.028;5.670;2023-02-15T16:50:25;62.85;;;35.35;;
27558;SDS011;15002;52.028;5.670;2023-02-15T16:52:58;57.65;;;32.42;;
27558;SDS011;15002;52.028;5.670;2023-02-15T16:55:25;59.58;;;32.40;;
27558;SDS011;15002;52.028;5.670;2023-02-15T16:57:57;58.42;;;31.08;;
27558;SDS011;15002;52.028;5.670;2023-02-15T17:00:26;57.83;;;31.25;;
27558;SDS011;15002;52.028;5.670;2023-02-15T17:02:59;56.88;;;30.65;;
27558;SDS011;15002;52.028;5.670;2023-02-15T17:05:41;59.28;;;30.85;;
27558;SDS011;15002;52.028;5.670;2023-02-15T17:08:22;59.30;;;31.38;;
27558;SDS011;15002;52.028;5.670;2023-02-15T17:13:35;65.70;;;34.95;;
27558;SDS011;15002;52.028;5.670;2023-02-15T17:18:30;63.90;;;33.22;;
27558;SDS011;15002;52.028;5.670;2023-02-15T17:21:08;61.95;;;33.50;;
27558;SDS011;15002;52.028;5.670;2023-02-15T17:23:48;67.38;;;36.67;;
27558;SDS011;15002;52.028;5.670;2023-02-15T17:26:23;64.60;;;36.92;;
27558;SDS011;15002;52.028;5.670;2023-02-15T17:28:56;68.10;;;34.75;;
27558;SDS011;15002;52.028;5.670;2023-02-15T17:31:25;65.63;;;34.80;;
27558;SDS011;15002;52.028;5.670;2023-02-15T17:33:56;54.50;;;29.70;;
27558;SDS011;15002;52.028;5.670;2023-02-15T17:36:24;57.67;;;31.85;;
27558;SDS011;15002;52.028;5.670;2023-02-15T17:41:26;63.20;;;35.08;;
27558;SDS011;15002;52.028;5.670;2023-02-15T17:43:53;65.80;;;36.35;;
27558;SDS011;15002;52.028;5.670;2023-02-15T17:46:18;61.85;;;34.60;;
27558;SDS011;15002;52.028;5.670;2023-02-15T17:48:49;61.25;;;33.58;;
27558;SDS011;15002;52.028;5.670;2023-02-15T17:51:17;58.03;;;31.35;;
27558;SDS011;15002;52.028;5.670;2023-02-15T17:53:44;56.08;;;31.33;;
27558;SDS011;15002;52.028;5.670;2023-02-15T17:56:29;59.75;;;30.75;;
27558;SDS011;15002;52.028;5.670;2023-02-15T17:58:54;56.75;;;30.52;;
27558;SDS011;15002;52.028;5.670;2023-02-15T18:01:20;53.60;;;29.80;;
27558;SDS011;15002;52.028;5.670;2023-02-15T18:04:05;69.80;;;38.70;;
27558;SDS011;15002;52.028;5.670;2023-02-15T18:06:54;59.80;;;31.55;;
27558;SDS011;15002;52.028;5.670;2023-02-15T18:09:38;59.22;;;32.10;;
27558;SDS011;15002;52.028;5.670;2023-02-15T18:12:23;64.15;;;33.28;;
27558;SDS011;15002;52.028;5.670;2023-02-15T18:14:51;63.88;;;34.80;;
27558;SDS011;15002;52.028;5.670;2023-02-15T18:17:39;62.35;;;34.53;;
27558;SDS011;15002;52.028;5.670;2023-02-15T18:20:20;56.63;;;30.50;;